createdAt,value
2022-09-25T00:01:13.347Z,8.38
2022-09-25T00:04:10.293Z,8.40
2022-09-25T00:07:07.251Z,8.31
2022-09-25T00:10:04.594Z,8.15
2022-09-25T00:13:01.442Z,8.09
2022-09-25T00:15:59.505Z,8.24
2022-09-25T00:19:16.814Z,8.16
2022-09-25T00:22:13.609Z,7.99
2022-09-25T00:25:15.524Z,7.89
2022-09-25T00:28:17.628Z,7.97
2022-09-25T00:31:24.548Z,7.86
2022-09-25T00:34:21.490Z,7.94
2022-09-25T00:37:18.626Z,8.00
2022-09-25T00:40:15.725Z,7.81
2022-09-25T00:43:41.340Z,7.82
2022-09-25T00:46:42.738Z,7.81
2022-09-25T00:49:39.757Z,7.71
2022-09-25T00:52:36.620Z,7.72
2022-09-25T00:55:35.849Z,7.72
2022-09-25T00:58:35.236Z,7.82
2022-09-25T01:01:32.087Z,7.74
2022-09-25T01:04:34.581Z,7.74
2022-09-25T01:07:34.603Z,7.75
2022-09-25T01:10:31.663Z,7.70
2022-09-25T01:13:29.884Z,7.73
2022-09-25T01:16:38.078Z,7.85
2022-09-25T01:20:02.480Z,7.95
2022-09-25T01:23:31.825Z,7.86
2022-09-25T01:27:06.377Z,8.06
2022-09-25T01:30:18.156Z,7.99
2022-09-25T01:33:31.363Z,8.11
2022-09-25T01:36:38.685Z,8.27
2022-09-25T01:39:42.369Z,8.34
2022-09-25T01:42:57.126Z,8.33
2022-09-25T01:46:00.128Z,8.32
2022-09-25T01:49:08.127Z,8.10
2022-09-25T01:52:13.999Z,8.03
2022-09-25T01:55:23.589Z,8.05
2022-09-25T01:58:32.478Z,8.19
2022-09-25T02:01:35.979Z,8.23
2022-09-25T02:04:53.264Z,8.14
2022-09-25T02:07:56.426Z,8.21
2022-09-25T02:11:02.207Z,8.39
2022-09-25T02:14:11.281Z,8.30
2022-09-25T02:17:12.637Z,8.39
2022-09-25T02:20:28.779Z,8.34
2022-09-25T02:24:25.059Z,8.43
2022-09-25T02:27:22.897Z,8.39
2022-09-25T02:30:20.097Z,8.40
2022-09-25T02:33:17.038Z,8.24
2022-09-25T02:36:20.190Z,8.24
2022-09-25T02:39:22.529Z,8.32
2022-09-25T02:42:59.711Z,8.22
2022-09-25T02:46:16.405Z,8.37
2022-09-25T02:49:40.475Z,8.20
2022-09-25T02:53:08.473Z,8.31
2022-09-25T02:56:28.758Z,8.36
2022-09-25T02:59:42.919Z,8.27
2022-09-25T03:02:42.892Z,8.30
2022-09-25T03:05:41.807Z,8.46
2022-09-25T03:08:46.380Z,8.35
2022-09-25T03:11:43.549Z,8.32
2022-09-25T03:14:40.584Z,8.28
2022-09-25T03:17:39.636Z,8.20
2022-09-25T03:20:36.517Z,8.05
2022-09-25T03:23:33.419Z,8.11
2022-09-25T03:26:30.927Z,8.15
2022-09-25T03:29:29.838Z,8.19
2022-09-25T03:32:26.640Z,8.12
2022-09-25T03:35:23.483Z,8.13
2022-09-25T03:38:20.255Z,8.10
2022-09-25T03:41:21.375Z,8.15
2022-09-25T03:44:18.276Z,8.21
2022-09-25T03:47:15.164Z,8.27
2022-09-25T03:50:12.010Z,8.26
2022-09-25T03:53:08.795Z,8.35
2022-09-25T03:56:13.882Z,8.32
2022-09-25T03:59:10.680Z,8.30
2022-09-25T04:02:07.634Z,8.27
2022-09-25T04:05:04.996Z,8.25
2022-09-25T04:08:02.598Z,8.24
2022-09-25T04:11:00.421Z,8.27
2022-09-25T04:13:57.300Z,8.16
2022-09-25T04:16:54.090Z,8.21
2022-09-25T04:19:51.921Z,8.29
2022-09-25T04:22:48.711Z,8.25
2022-09-25T04:25:45.825Z,8.24
2022-09-25T04:28:45.317Z,8.15
2022-09-25T04:31:42.212Z,8.22
2022-09-25T04:34:39.179Z,8.21
2022-09-25T04:37:35.963Z,8.14
2022-09-25T04:40:33.486Z,8.22
2022-09-25T04:43:32.587Z,8.05
2022-09-25T04:46:29.454Z,8.12
2022-09-25T04:49:26.292Z,8.19
2022-09-25T04:52:23.170Z,8.18
2022-09-25T04:55:24.291Z,8.24
2022-09-25T04:58:21.398Z,8.18
2022-09-25T05:01:20.447Z,8.27
2022-09-25T05:04:17.385Z,8.34
2022-09-25T05:07:14.155Z,8.44
2022-09-25T05:10:10.952Z,8.49
2022-09-25T05:13:11.157Z,8.43
2022-09-25T05:16:08.758Z,8.32
2022-09-25T05:19:05.688Z,8.33
2022-09-25T05:22:02.478Z,8.35
2022-09-25T05:24:59.364Z,8.45
2022-09-25T05:27:59.072Z,8.47
2022-09-25T05:30:59.151Z,8.40
2022-09-25T05:33:56.090Z,8.52
2022-09-25T05:36:52.970Z,8.62
2022-09-25T05:39:49.917Z,8.52
2022-09-25T05:42:47.896Z,8.64
2022-09-25T05:45:44.764Z,8.57
2022-09-25T05:48:41.944Z,8.63
2022-09-25T05:51:38.718Z,8.61
2022-09-25T05:54:35.502Z,8.70
2022-09-25T05:57:37.031Z,8.75
2022-09-25T06:00:33.871Z,8.75
2022-09-25T06:03:31.307Z,8.79
2022-09-25T06:06:31.785Z,8.92
2022-09-25T06:09:28.594Z,8.96
2022-09-25T06:12:25.371Z,8.87
2022-09-25T06:15:24.055Z,8.95
2022-09-25T06:18:24.062Z,9.04
2022-09-25T06:21:21.470Z,9.09
2022-09-25T06:24:18.286Z,9.11
2022-09-25T06:27:15.099Z,9.10
2022-09-25T06:30:12.407Z,9.05
2022-09-25T06:33:14.203Z,9.06
2022-09-25T06:36:10.991Z,9.20
2022-09-25T06:39:08.553Z,9.18
2022-09-25T06:42:05.507Z,9.19
2022-09-25T06:45:02.470Z,9.23
2022-09-25T06:48:12.730Z,9.37
2022-09-25T06:51:09.605Z,9.49
2022-09-25T06:54:06.878Z,9.48
2022-09-25T06:57:03.854Z,9.49
2022-09-25T07:00:00.690Z,9.49
2022-09-25T07:03:17.552Z,9.56
2022-09-25T07:06:24.338Z,9.71
2022-09-25T07:09:21.136Z,9.79
2022-09-25T07:12:18.398Z,9.81
2022-09-25T07:15:15.673Z,9.91
2022-09-25T07:18:12.479Z,9.95
2022-09-25T07:21:13.337Z,10.06
2022-09-25T07:24:10.122Z,10.10
2022-09-25T07:27:06.939Z,10.21
2022-09-25T07:30:05.110Z,10.23
2022-09-25T07:33:02.794Z,10.41
2022-09-25T07:36:01.254Z,10.57
2022-09-25T07:38:58.058Z,10.70
2022-09-25T07:41:55.633Z,10.79
2022-09-25T07:44:53.032Z,10.87
2022-09-25T07:47:50.167Z,11.02
2022-09-25T07:50:48.851Z,11.15
2022-09-25T07:53:45.687Z,11.44
2022-09-25T07:56:42.503Z,11.64
2022-09-25T07:59:39.684Z,11.78
2022-09-25T08:02:36.523Z,11.65
2022-09-25T08:05:33.364Z,12.39
2022-09-25T08:08:31.006Z,12.32
2022-09-25T08:11:31.232Z,13.45
2022-09-25T08:14:28.971Z,13.51
2022-09-25T08:17:31.201Z,13.26
2022-09-25T08:20:28.044Z,13.90
2022-09-25T08:23:24.839Z,13.54
2022-09-25T08:26:23.020Z,13.91
2022-09-25T08:29:19.834Z,13.64
2022-09-25T08:32:16.631Z,14.45
2022-09-25T08:35:13.798Z,14.73
2022-09-25T08:38:12.304Z,13.70
2022-09-25T08:41:28.074Z,12.80
2022-09-25T08:44:52.810Z,12.61
2022-09-25T08:48:19.171Z,12.79
2022-09-25T08:51:16.511Z,13.10
2022-09-25T08:54:22.768Z,12.86
2022-09-25T08:57:43.477Z,12.65
2022-09-25T09:00:40.327Z,13.08
2022-09-25T09:04:05.501Z,13.39
2022-09-25T09:07:33.015Z,13.12
2022-09-25T09:10:53.715Z,13.79
2022-09-25T09:14:02.891Z,13.22
2022-09-25T09:17:21.040Z,13.46
2022-09-25T09:20:33.728Z,13.71
2022-09-25T09:23:46.332Z,13.76
2022-09-25T09:27:23.424Z,13.47
2022-09-25T09:30:51.339Z,13.44
2022-09-25T09:34:02.987Z,13.25
2022-09-25T09:37:04.970Z,13.41
2022-09-25T09:40:49.184Z,13.66
2022-09-25T09:44:35.243Z,13.74
2022-09-25T09:47:52.076Z,14.37
2022-09-25T09:51:01.472Z,13.95
2022-09-25T09:54:22.378Z,14.18
2022-09-25T09:57:33.725Z,13.85
2022-09-25T10:00:30.928Z,13.65
2022-09-25T10:03:32.586Z,14.10
2022-09-25T10:06:34.655Z,14.07
2022-09-25T10:09:31.927Z,13.97
2022-09-25T10:12:37.515Z,13.95
2022-09-25T10:15:41.027Z,14.12
2022-09-25T10:19:04.179Z,13.99
2022-09-25T10:22:16.433Z,14.19
2022-09-25T10:25:14.094Z,13.89
2022-09-25T10:28:32.531Z,13.95
2022-09-25T10:31:40.685Z,14.11
2022-09-25T10:34:40.600Z,14.17
2022-09-25T10:37:37.501Z,14.04
2022-09-25T10:40:38.125Z,14.27
2022-09-25T10:43:35.004Z,14.06
2022-09-25T10:46:55.420Z,13.82
2022-09-25T10:50:24.915Z,14.22
2022-09-25T10:53:30.430Z,14.26
2022-09-25T10:56:35.980Z,14.27
2022-09-25T10:59:32.896Z,14.05
2022-09-25T11:02:41.782Z,14.08
2022-09-25T11:05:38.718Z,13.66
2022-09-25T11:08:39.267Z,13.66
2022-09-25T11:11:39.256Z,13.81
2022-09-25T11:14:37.452Z,13.50
2022-09-25T11:17:43.207Z,13.36
2022-09-25T11:20:42.271Z,13.37
2022-09-25T11:23:53.444Z,13.48
2022-09-25T11:27:30.427Z,13.53
2022-09-25T11:30:43.317Z,13.54
2022-09-25T11:34:11.189Z,13.61
2022-09-25T11:37:36.859Z,13.57
2022-09-25T11:41:12.762Z,13.60
2022-09-25T11:44:23.291Z,13.83
2022-09-25T11:47:46.187Z,13.66
2022-09-25T11:51:11.278Z,13.60
2022-09-25T11:54:36.785Z,13.64
2022-09-25T11:57:52.782Z,13.85
2022-09-25T12:01:11.944Z,13.74
2022-09-25T12:04:56.103Z,13.66
2022-09-25T12:08:26.788Z,13.62
2022-09-25T12:11:48.267Z,13.61
2022-09-25T12:15:20.166Z,13.70
2022-09-25T12:19:05.186Z,13.84
2022-09-25T12:22:33.466Z,13.97
2022-09-25T12:26:11.226Z,13.61
2022-09-25T12:29:46.272Z,13.71
2022-09-25T12:33:09.210Z,13.83
2022-09-25T12:36:28.093Z,13.91
2022-09-25T12:39:44.878Z,13.80
2022-09-25T12:43:17.171Z,13.87
2022-09-25T12:46:22.307Z,13.89
2022-09-25T12:49:37.775Z,14.06
2022-09-25T12:52:44.936Z,13.96
2022-09-25T12:55:53.636Z,13.97
2022-09-25T12:59:13.657Z,13.85
2022-09-25T13:02:43.946Z,13.68
2022-09-25T13:06:10.608Z,13.64
2022-09-25T13:09:40.988Z,13.66
2022-09-25T13:12:39.310Z,13.51
2022-09-25T13:15:39.632Z,13.52
2022-09-25T13:18:36.448Z,13.49
2022-09-25T13:21:37.867Z,13.59
2022-09-25T13:25:01.707Z,13.55
2022-09-25T13:28:07.864Z,13.45
2022-09-25T13:31:12.307Z,13.29
2022-09-25T13:34:19.065Z,13.29
2022-09-25T13:37:16.484Z,13.22
2022-09-25T13:40:40.866Z,13.03
2022-09-25T13:43:38.471Z,12.95
2022-09-25T13:46:37.177Z,12.81
2022-09-25T13:49:35.809Z,12.86
2022-09-25T13:53:17.384Z,12.56
2022-09-25T13:56:18.663Z,12.33
2022-09-25T13:59:15.862Z,12.34
2022-09-25T14:02:42.311Z,11.97
2022-09-25T14:05:42.905Z,11.87
2022-09-25T14:08:42.989Z,11.81
2022-09-25T14:11:44.651Z,11.79
2022-09-25T14:15:03.245Z,11.79
2022-09-25T14:18:05.952Z,11.89
2022-09-25T14:21:09.624Z,11.93
2022-09-25T14:24:22.396Z,11.97
2022-09-25T14:27:27.817Z,12.00
2022-09-25T14:30:29.153Z,11.96
2022-09-25T14:33:45.263Z,11.82
2022-09-25T14:36:54.163Z,11.86
2022-09-25T14:40:04.131Z,11.74
2022-09-25T14:43:16.538Z,11.61
2022-09-25T14:46:20.348Z,11.73
2022-09-25T14:49:39.594Z,11.75
2022-09-25T14:52:37.398Z,11.67
2022-09-25T14:55:39.495Z,11.54
2022-09-25T14:58:43.254Z,11.54
2022-09-25T15:01:49.121Z,11.55
2022-09-25T15:04:46.794Z,11.56
2022-09-25T15:07:46.281Z,11.62
2022-09-25T15:10:43.072Z,11.59
2022-09-25T15:13:40.660Z,11.57
2022-09-25T15:16:56.944Z,11.55
2022-09-25T15:19:55.183Z,11.61
2022-09-25T15:23:08.504Z,11.52
2022-09-25T15:26:05.476Z,11.51
2022-09-25T15:29:02.349Z,11.47
2022-09-25T15:31:59.762Z,11.48
2022-09-25T15:35:19.352Z,11.39
2022-09-25T15:38:18.448Z,11.49
2022-09-25T15:41:15.925Z,11.53
2022-09-25T15:44:23.101Z,11.47
2022-09-25T15:47:35.239Z,11.29
2022-09-25T15:50:32.119Z,11.36
2022-09-25T15:53:43.787Z,11.39
2022-09-25T15:56:53.207Z,11.36
2022-09-25T16:00:09.824Z,11.30
2022-09-25T16:03:49.435Z,11.34
2022-09-25T16:06:49.819Z,11.38
2022-09-25T16:09:51.741Z,11.35
2022-09-25T16:12:50.435Z,11.36
2022-09-25T16:15:51.823Z,11.32
2022-09-25T16:18:49.474Z,11.26
2022-09-25T16:21:46.429Z,11.30
2022-09-25T16:24:48.927Z,11.33
2022-09-25T16:27:46.938Z,11.34
2022-09-25T16:31:03.746Z,11.26
2022-09-25T16:34:01.180Z,11.15
2022-09-25T16:37:03.009Z,11.20
2022-09-25T16:40:26.008Z,11.27
2022-09-25T16:43:26.468Z,11.22
2022-09-25T16:46:24.010Z,11.23
2022-09-25T16:49:20.932Z,11.17
2022-09-25T16:52:23.615Z,11.20
2022-09-25T16:55:29.496Z,11.21
2022-09-25T16:58:28.099Z,11.15
2022-09-25T17:01:27.525Z,11.02
2022-09-25T17:04:30.536Z,11.08
2022-09-25T17:07:27.685Z,11.07
2022-09-25T17:10:31.751Z,10.97
2022-09-25T17:13:30.814Z,10.84
2022-09-25T17:16:27.931Z,10.81
2022-09-25T17:19:25.041Z,10.77
2022-09-25T17:22:24.740Z,10.73
2022-09-25T17:25:47.995Z,10.64
2022-09-25T17:28:45.056Z,10.59
2022-09-25T17:31:42.064Z,10.58
2022-09-25T17:34:39.415Z,10.54
2022-09-25T17:37:36.265Z,10.50
2022-09-25T17:40:33.583Z,10.43
2022-09-25T17:43:30.451Z,10.45
2022-09-25T17:46:27.701Z,10.49
2022-09-25T17:49:25.586Z,10.42
2022-09-25T17:52:22.392Z,10.42
2022-09-25T17:55:21.478Z,10.22
2022-09-25T17:58:18.974Z,10.30
2022-09-25T18:01:22.172Z,10.33
2022-09-25T18:04:23.511Z,10.24
2022-09-25T18:07:20.591Z,10.22
2022-09-25T18:10:18.038Z,10.23
2022-09-25T18:13:22.769Z,10.32
2022-09-25T18:16:25.333Z,10.40
2022-09-25T18:19:40.387Z,10.39
2022-09-25T18:22:38.184Z,10.48
2022-09-25T18:25:38.949Z,10.46
2022-09-25T18:28:35.747Z,10.31
2022-09-25T18:31:32.665Z,10.34
2022-09-25T18:34:29.665Z,10.28
2022-09-25T18:37:26.466Z,10.24
2022-09-25T18:40:23.299Z,10.26
2022-09-25T18:43:21.068Z,10.20
2022-09-25T18:46:18.476Z,10.20
2022-09-25T18:49:15.621Z,10.18
2022-09-25T18:52:12.529Z,10.12
2022-09-25T18:55:09.576Z,10.17
2022-09-25T18:58:06.367Z,10.15
2022-09-25T19:01:05.955Z,10.21
2022-09-25T19:04:03.386Z,10.20
2022-09-25T19:07:00.184Z,10.13
2022-09-25T19:09:58.386Z,10.13
2022-09-25T19:12:55.188Z,10.05
2022-09-25T19:15:52.027Z,9.84
2022-09-25T19:18:50.307Z,9.80
2022-09-25T19:21:47.268Z,9.67
2022-09-25T19:24:46.027Z,9.75
2022-09-25T19:27:42.818Z,9.79
2022-09-25T19:30:39.685Z,9.77
2022-09-25T19:33:37.418Z,9.75
2022-09-25T19:36:34.835Z,9.75
2022-09-25T19:39:51.773Z,9.73
2022-09-25T19:42:49.850Z,9.69
2022-09-25T19:45:51.561Z,9.59
2022-09-25T19:48:48.810Z,9.63
2022-09-25T19:51:45.686Z,9.72
2022-09-25T19:54:42.592Z,9.66
2022-09-25T19:57:39.514Z,9.71
2022-09-25T20:00:41.527Z,9.65
2022-09-25T20:03:38.732Z,9.59
2022-09-25T20:06:36.727Z,9.57
2022-09-25T20:09:39.001Z,9.52
2022-09-25T20:12:36.610Z,9.46
2022-09-25T20:15:33.884Z,9.44
2022-09-25T20:18:30.762Z,9.52
2022-09-25T20:21:31.679Z,9.57
2022-09-25T20:24:28.544Z,9.63
2022-09-25T20:27:26.044Z,9.66
2022-09-25T20:30:24.332Z,9.62
2022-09-25T20:33:21.122Z,9.60
2022-09-25T20:36:18.438Z,9.59
2022-09-25T20:39:20.797Z,9.44
2022-09-25T20:42:18.499Z,9.47
2022-09-25T20:45:15.413Z,9.52
2022-09-25T20:48:12.231Z,9.64
2022-09-25T20:51:12.319Z,9.71
2022-09-25T20:54:10.108Z,9.54
2022-09-25T20:57:08.915Z,9.61
2022-09-25T21:00:06.392Z,9.65
2022-09-25T21:03:04.331Z,9.64
2022-09-25T21:06:03.148Z,9.62
2022-09-25T21:09:03.509Z,9.64
2022-09-25T21:12:00.419Z,9.64
2022-09-25T21:14:57.221Z,9.55
2022-09-25T21:17:54.689Z,9.54
2022-09-25T21:20:51.479Z,9.59
2022-09-25T21:23:51.538Z,9.59
2022-09-25T21:26:49.975Z,9.54
2022-09-25T21:29:46.806Z,9.53
2022-09-25T21:32:43.596Z,9.56
2022-09-25T21:35:40.422Z,9.43
2022-09-25T21:38:37.363Z,9.45
2022-09-25T21:41:35.302Z,9.49
2022-09-25T21:44:32.331Z,9.36
2022-09-25T21:47:29.189Z,9.51
2022-09-25T21:50:25.981Z,9.46
2022-09-25T21:53:23.945Z,9.36
2022-09-25T21:56:24.280Z,9.51
2022-09-25T21:59:21.258Z,9.38
2022-09-25T22:02:18.319Z,9.44
2022-09-25T22:05:15.135Z,9.56
2022-09-25T22:08:11.937Z,9.57
2022-09-25T22:11:11.048Z,9.43
2022-09-25T22:14:10.855Z,9.34
2022-09-25T22:17:10.333Z,9.39
2022-09-25T22:20:08.038Z,9.37
2022-09-25T22:23:04.850Z,9.48
2022-09-25T22:26:02.221Z,9.37
2022-09-25T22:28:59.092Z,9.39
2022-09-25T22:31:55.881Z,9.44
2022-09-25T22:34:52.672Z,9.47
2022-09-25T22:37:49.466Z,9.38
2022-09-25T22:40:46.273Z,9.31
2022-09-25T22:43:44.213Z,9.29
2022-09-25T22:46:41.005Z,9.38
2022-09-25T22:49:37.832Z,9.52
2022-09-25T22:52:35.383Z,9.48
2022-09-25T22:55:32.843Z,9.43
2022-09-25T22:58:29.648Z,9.32
2022-09-25T23:01:39.144Z,9.37
2022-09-25T23:04:36.122Z,9.45
2022-09-25T23:07:32.940Z,9.39
2022-09-25T23:10:48.657Z,9.33
2022-09-25T23:13:46.558Z,9.29
2022-09-25T23:16:45.449Z,9.35
2022-09-25T23:19:42.282Z,9.36
2022-09-25T23:22:39.161Z,9.32
2022-09-25T23:25:35.983Z,9.28
2022-09-25T23:28:35.272Z,9.33
2022-09-25T23:31:33.689Z,9.26
2022-09-25T23:34:30.465Z,9.18
2022-09-25T23:37:28.781Z,9.23
2022-09-25T23:40:26.525Z,9.31
2022-09-25T23:43:23.369Z,9.37
2022-09-25T23:46:23.035Z,9.19
2022-09-25T23:49:19.947Z,9.19
2022-09-25T23:52:16.760Z,9.24
2022-09-25T23:55:14.182Z,9.24
2022-09-25T23:58:11.430Z,9.09
